Time;durP1;ratioP1;P1;durP2;ratioP2;P2;SDS_P1;SDS_P2;PMS_P1;PMS_P2;Temp;Humidity;BMP_temperature;BMP_pressure;BME280_temperature;BME280_humidity;BME280_pressure;Samples;Min_cycle;Max_cycle;Signal;HPM_P1;HPM_P2
2022/08/10 00:00:20;;;;;;;8.45;5.53;;;;;;;;;;6182661;23;20043;-86
2022/08/10 00:02:47;;;;;;;12.48;5.22;;;;;;;;;;6183320;23;20443;-85
2022/08/10 00:05:13;;;;;;;10.00;6.25;;;;;;;;;;6182428;23;20420;-86
2022/08/10 00:07:39;;;;;;;14.25;6.10;;;;;;;;;;6183247;23;20011;-86
2022/08/10 00:10:05;;;;;;;13.88;6.30;;;;;;;;;;6183151;23;20083;-85
2022/08/10 00:12:31;;;;;;;14.48;5.78;;;;;;;;;;6182668;23;20510;-86
2022/08/10 00:14:58;;;;;;;14.80;6.22;;;;;;;;;;6181601;23;20012;-86
2022/08/10 00:17:25;;;;;;;11.45;5.88;;;;;;;;;;6182768;23;20009;-86
2022/08/10 00:19:50;;;;;;;12.90;5.75;;;;;;;;;;6183399;23;20051;-86
2022/08/10 00:22:16;;;;;;;9.15;5.22;;;;;;;;;;6237179;22;20024;-85
2022/08/10 00:24:43;;;;;;;9.60;6.05;;;;;;;;;;6212894;23;20039;-86
2022/08/10 00:27:09;;;;;;;10.65;5.55;;;;;;;;;;6239129;23;19996;-86
2022/08/10 00:29:35;;;;;;;10.98;5.95;;;;;;;;;;6213012;23;20030;-86
2022/08/10 00:32:01;;;;;;;13.23;5.95;;;;;;;;;;6212578;23;20366;-86
2022/08/10 00:34:27;;;;;;;11.02;6.60;;;;;;;;;;6210814;23;20015;-86
2022/08/10 00:36:53;;;;;;;13.75;6.00;;;;;;;;;;6212432;23;20015;-85
2022/08/10 00:39:19;;;;;;;15.35;7.40;;;;;;;;;;6211944;23;20452;-86
2022/08/10 00:41:45;;;;;;;13.38;6.28;;;;;;;;;;6211088;23;20096;-86
2022/08/10 00:44:11;;;;;;;12.30;6.68;;;;;;;;;;6212457;23;20103;-86
2022/08/10 00:46:37;;;;;;;19.60;7.65;;;;;;;;;;6211317;23;20443;-86
2022/08/10 00:49:03;;;;;;;12.80;7.35;;;;;;;;;;6212157;23;20012;-86
2022/08/10 00:51:29;;;;;;;12.77;7.28;;;;;;;;;;6212647;23;20000;-86
2022/08/10 00:53:55;;;;;;;14.07;7.32;;;;;;;;;;6212889;23;20027;-86
2022/08/10 00:56:22;;;;;;;10.70;7.30;;;;;;;;;;6209701;23;20004;-86
2022/08/10 00:58:48;;;;;;;11.48;7.32;;;;;;;;;;6211493;23;20452;-85
2022/08/10 01:01:14;;;;;;;12.68;7.25;;;;;;;;;;6210283;23;20012;-85
2022/08/10 01:03:40;;;;;;;18.10;8.68;;;;;;;;;;6211349;23;20008;-86
2022/08/10 01:06:28;;;;;;;13.48;7.32;;;;;;;;;;6212044;23;20019;-85
2022/08/10 01:09:01;;;;;;;13.82;7.82;;;;;;;;;;6212445;23;20039;-86
2022/08/10 01:11:32;;;;;;;13.38;7.95;;;;;;;;;;6238310;23;20721;-86
2022/08/10 01:14:05;;;;;;;17.95;8.95;;;;;;;;;;6212418;23;20495;-86
2022/08/10 01:16:37;;;;;;;23.70;9.30;;;;;;;;;;6211433;23;20343;-86
2022/08/10 01:19:15;;;;;;;19.25;9.48;;;;;;;;;;6237836;23;20004;-85
2022/08/10 01:22:00;;;;;;;20.42;8.73;;;;;;;;;;6212565;22;20042;-86
2022/08/10 01:24:53;;;;;;;21.98;9.68;;;;;;;;;;6209030;23;20009;-86
2022/08/10 01:27:36;;;;;;;20.42;10.43;;;;;;;;;;6212071;23;20006;-86
2022/08/10 01:30:05;;;;;;;19.27;9.30;;;;;;;;;;6212857;23;20070;-86
2022/08/10 01:32:44;;;;;;;18.77;9.48;;;;;;;;;;6212622;23;20008;-87
2022/08/10 01:35:30;;;;;;;17.10;10.18;;;;;;;;;;6213572;23;20459;-86
2022/08/10 01:37:56;;;;;;;;;;;;;;;;;;6214008;23;20491;-86
2022/08/10 01:40:24;;;;;;;19.63;10.10;;;;;;;;;;6211585;23;19907;-87
2022/08/10 01:42:51;;;;;;;22.98;9.52;;;;;;;;;;6211401;23;20396;-85
2022/08/10 01:45:18;;;;;;;18.15;10.05;;;;;;;;;;6212428;23;20015;-86
2022/08/10 01:50:30;;;;;;;18.45;10.07;;;;;;;;;;6239235;23;20018;-87
2022/08/10 01:53:00;;;;;;;20.20;9.93;;;;;;;;;;6211682;23;20087;-86
2022/08/10 01:55:27;;;;;;;17.20;10.43;;;;;;;;;;6212457;23;20044;-85
2022/08/10 01:57:54;;;;;;;21.60;10.80;;;;;;;;;;6211001;23;20012;-86
2022/08/10 02:00:20;;;;;;;22.88;9.45;;;;;;;;;;6211576;23;20023;-86
2022/08/10 02:02:47;;;;;;;25.23;10.02;;;;;;;;;;6238311;23;20431;-86
2022/08/10 02:05:14;;;;;;;19.15;10.10;;;;;;;;;;6211621;23;20332;-86
2022/08/10 02:07:45;;;;;;;25.05;9.68;;;;;;;;;;6210864;23;20031;-86
2022/08/10 02:10:12;;;;;;;21.33;10.30;;;;;;;;;;6238224;23;20497;-86
2022/08/10 02:12:39;;;;;;;18.90;9.63;;;;;;;;;;6210468;23;20416;-86
2022/08/10 02:15:07;;;;;;;15.20;9.38;;;;;;;;;;6211266;23;20004;-86
2022/08/10 02:17:38;;;;;;;16.52;9.02;;;;;;;;;;6211043;23;20004;-86
2022/08/10 02:20:07;;;;;;;21.27;9.73;;;;;;;;;;6210845;23;20012;-86
2022/08/10 02:22:34;;;;;;;15.65;9.45;;;;;;;;;;6203764;22;20024;-85
2022/08/10 02:25:01;;;;;;;21.85;9.90;;;;;;;;;;6208115;23;20083;-85
2022/08/10 02:27:28;;;;;;;15.07;9.70;;;;;;;;;;6204418;23;20062;-85
2022/08/10 02:29:55;;;;;;;20.63;9.57;;;;;;;;;;6208371;23;20375;-87
2022/08/10 02:32:23;;;;;;;16.30;9.27;;;;;;;;;;6206033;23;20186;-86
2022/08/10 02:34:49;;;;;;;21.45;9.85;;;;;;;;;;6205759;23;20023;-86
2022/08/10 02:37:16;;;;;;;24.08;10.73;;;;;;;;;;6206422;23;20012;-86
2022/08/10 02:39:42;;;;;;;15.77;9.40;;;;;;;;;;6206161;23;20423;-86
2022/08/10 02:42:13;;;;;;;29.48;11.52;;;;;;;;;;6206265;23;20004;-86
2022/08/10 02:44:39;;;;;;;16.98;9.50;;;;;;;;;;6207128;23;20015;-86
2022/08/10 02:47:15;;;;;;;22.70;10.77;;;;;;;;;;6207145;23;20325;-85
2022/08/10 02:49:41;;;;;;;;;;;;;;;;;;6205452;23;20004;-86
2022/08/10 02:52:20;;;;;;;18.45;9.60;;;;;;;;;;6206692;23;20546;-86
2022/08/10 02:54:50;;;;;;;18.25;8.88;;;;;;;;;;6207575;23;20012;-87
2022/08/10 02:57:19;;;;;;;24.10;9.80;;;;;;;;;;6206344;23;20015;-86
2022/08/10 02:59:50;;;;;;;17.95;8.88;;;;;;;;;;6205974;23;20008;-86
2022/08/10 03:02:30;;;;;;;14.43;9.48;;;;;;;;;;6205069;23;20060;-85
2022/08/10 03:04:59;;;;;;;19.10;9.38;;;;;;;;;;6206145;23;20047;-86
2022/08/10 03:07:28;;;;;;;20.95;9.40;;;;;;;;;;6205014;23;20418;-86
2022/08/10 03:09:54;;;;;;;21.98;9.27;;;;;;;;;;6207135;23;20073;-86
2022/08/10 03:12:21;;;;;;;19.58;8.52;;;;;;;;;;6203466;23;20000;-86
2022/08/10 03:14:48;;;;;;;19.77;9.15;;;;;;;;;;6204929;23;20008;-86
2022/08/10 03:17:14;;;;;;;18.38;9.45;;;;;;;;;;6204537;23;20016;-86
2022/08/10 03:19:41;;;;;;;20.08;9.02;;;;;;;;;;6208620;23;20000;-85
2022/08/10 03:22:08;;;;;;;17.13;8.93;;;;;;;;;;6206278;22;20079;-86
2022/08/10 03:24:35;;;;;;;17.50;9.32;;;;;;;;;;6205799;23;20091;-85
2022/08/10 03:27:02;;;;;;;23.88;9.98;;;;;;;;;;6206216;23;20062;-85
2022/08/10 03:29:36;;;;;;;16.83;8.90;;;;;;;;;;6207260;23;20112;-85
2022/08/10 03:32:03;;;;;;;23.30;9.98;;;;;;;;;;6204621;23;20000;-85
2022/08/10 03:34:30;;;;;;;22.33;9.35;;;;;;;;;;6205597;23;20008;-86
2022/08/10 03:36:56;;;;;;;16.48;9.65;;;;;;;;;;6208002;23;20008;-84
2022/08/10 03:39:22;;;;;;;19.73;9.90;;;;;;;;;;6205710;23;20005;-85
2022/08/10 03:41:56;;;;;;;23.95;10.52;;;;;;;;;;6207829;23;20032;-87
2022/08/10 03:44:29;;;;;;;20.77;9.88;;;;;;;;;;6206949;23;20015;-86
2022/08/10 03:46:58;;;;;;;21.95;11.20;;;;;;;;;;6206797;23;20011;-86
2022/08/10 03:49:24;;;;;;;18.88;10.80;;;;;;;;;;6208254;23;20058;-86
2022/08/10 03:51:50;;;;;;;29.08;11.52;;;;;;;;;;6207211;23;20008;-86
2022/08/10 03:54:17;;;;;;;20.10;10.70;;;;;;;;;;6205538;23;20043;-86
2022/08/10 03:56:43;;;;;;;18.23;10.65;;;;;;;;;;6206422;23;20055;-87
2022/08/10 03:59:11;;;;;;;21.73;10.70;;;;;;;;;;6205714;23;20008;-86
2022/08/10 04:01:37;;;;;;;20.55;10.60;;;;;;;;;;6207972;23;20476;-86
2022/08/10 04:04:03;;;;;;;23.00;10.88;;;;;;;;;;6206741;23;20382;-86
2022/08/10 04:06:29;;;;;;;21.30;10.68;;;;;;;;;;6205509;23;20011;-86
2022/08/10 04:08:56;;;;;;;17.42;10.90;;;;;;;;;;6207578;23;20001;-86
2022/08/10 04:11:21;;;;;;;20.15;10.85;;;;;;;;;;6204344;23;20047;-86
2022/08/10 04:13:47;;;;;;;26.10;11.70;;;;;;;;;;6206309;23;20379;-85
2022/08/10 04:16:13;;;;;;;24.10;10.38;;;;;;;;;;6203483;23;20121;-86
2022/08/10 04:18:39;;;;;;;26.15;10.85;;;;;;;;;;6204984;23;20347;-87
2022/08/10 04:21:21;;;;;;;20.77;9.63;;;;;;;;;;6213066;22;20051;-87
2022/08/10 04:23:49;;;;;;;20.80;10.63;;;;;;;;;;6237863;23;20522;-86
2022/08/10 04:26:15;;;;;;;20.98;10.35;;;;;;;;;;6237318;23;20016;-85
2022/08/10 04:28:41;;;;;;;23.70;10.90;;;;;;;;;;6210818;23;20440;-85
2022/08/10 04:31:08;;;;;;;23.08;10.50;;;;;;;;;;6237195;23;20011;-85
2022/08/10 04:33:36;;;;;;;24.17;9.43;;;;;;;;;;6210694;23;20027;-86
2022/08/10 04:36:03;;;;;;;19.67;9.38;;;;;;;;;;6237768;23;20395;-86
2022/08/10 04:38:30;;;;;;;25.73;10.68;;;;;;;;;;6210010;23;20038;-85
2022/08/10 04:40:57;;;;;;;21.17;10.10;;;;;;;;;;6235525;23;20008;-86
2022/08/10 04:43:23;;;;;;;19.13;10.30;;;;;;;;;;6210041;23;20061;-86
2022/08/10 04:45:49;;;;;;;21.60;10.27;;;;;;;;;;6209579;23;20008;-87
2022/08/10 04:48:15;;;;;;;22.33;9.90;;;;;;;;;;6207888;23;20008;-86
2022/08/10 04:50:41;;;;;;;21.73;10.63;;;;;;;;;;6209696;23;20087;-86
2022/08/10 04:53:10;;;;;;;21.80;9.35;;;;;;;;;;6235608;23;20089;-85
2022/08/10 04:55:36;;;;;;;16.67;8.98;;;;;;;;;;6207006;23;20450;-86
2022/08/10 04:58:02;;;;;;;20.40;8.60;;;;;;;;;;6207232;23;20440;-85
2022/08/10 05:00:28;;;;;;;15.40;8.57;;;;;;;;;;6209141;23;20472;-85
2022/08/10 05:02:55;;;;;;;10.88;7.53;;;;;;;;;;6208290;23;20424;-86
2022/08/10 05:05:21;;;;;;;14.95;7.72;;;;;;;;;;6210746;23;20499;-86
2022/08/10 05:07:47;;;;;;;14.93;8.70;;;;;;;;;;6209159;23;20000;-85
2022/08/10 05:10:13;;;;;;;15.07;8.00;;;;;;;;;;6208967;23;20408;-85
2022/08/10 05:12:39;;;;;;;11.18;7.82;;;;;;;;;;6235025;23;20436;-86
2022/08/10 05:15:05;;;;;;;17.88;7.85;;;;;;;;;;6209573;23;20450;-85
2022/08/10 05:17:31;;;;;;;11.40;6.95;;;;;;;;;;6208243;23;20039;-86
2022/08/10 05:19:57;;;;;;;14.38;6.90;;;;;;;;;;6235941;23;20008;-85
2022/08/10 05:22:23;;;;;;;16.25;8.15;;;;;;;;;;6208862;22;20024;-85
2022/08/10 05:24:49;;;;;;;19.20;8.18;;;;;;;;;;6207607;23;20431;-87
2022/08/10 05:27:15;;;;;;;11.43;7.47;;;;;;;;;;6206806;23;20008;-85
2022/08/10 05:29:41;;;;;;;12.32;8.02;;;;;;;;;;6209210;23;20008;-85
2022/08/10 05:32:07;;;;;;;12.75;7.50;;;;;;;;;;6208100;23;20008;-87
2022/08/10 05:34:33;;;;;;;13.45;7.80;;;;;;;;;;6208694;23;20434;-86
2022/08/10 05:37:00;;;;;;;12.40;7.40;;;;;;;;;;6206928;23;20513;-85
2022/08/10 05:39:26;;;;;;;14.23;7.18;;;;;;;;;;6208082;23;20123;-86
2022/08/10 05:41:53;;;;;;;13.88;7.22;;;;;;;;;;6203408;23;20012;-86
2022/08/10 05:44:22;;;;;;;15.48;6.63;;;;;;;;;;6234489;23;20003;-86
2022/08/10 05:46:49;;;;;;;10.15;6.07;;;;;;;;;;6206944;23;20339;-86
2022/08/10 05:49:15;;;;;;;11.48;6.50;;;;;;;;;;6207657;23;20510;-85
2022/08/10 05:51:41;;;;;;;11.60;6.22;;;;;;;;;;6207539;23;20008;-86
2022/08/10 05:54:13;;;;;;;20.65;7.63;;;;;;;;;;6235746;23;20027;-86
2022/08/10 05:56:40;;;;;;;10.25;6.82;;;;;;;;;;6206677;23;20483;-86
2022/08/10 05:59:06;;;;;;;9.90;6.80;;;;;;;;;;6206606;23;20058;-86
2022/08/10 06:01:34;;;;;;;9.02;6.05;;;;;;;;;;6205596;23;20011;-85
2022/08/10 06:04:01;;;;;;;12.57;6.35;;;;;;;;;;6207038;23;20375;-86
2022/08/10 06:06:29;;;;;;;10.90;6.00;;;;;;;;;;6206908;23;20008;-86
2022/08/10 06:08:56;;;;;;;14.68;6.22;;;;;;;;;;6234850;23;20456;-86
2022/08/10 06:11:22;;;;;;;8.10;5.18;;;;;;;;;;6233961;23;20005;-85
2022/08/10 06:16:34;;;;;;;9.60;5.78;;;;;;;;;;6236294;23;20225;-86
2022/08/10 06:19:01;;;;;;;7.72;5.32;;;;;;;;;;6209853;23;20492;-86
2022/08/10 06:21:27;;;;;;;10.77;6.20;;;;;;;;;;6237951;22;20020;-86
2022/08/10 06:23:54;;;;;;;10.82;5.05;;;;;;;;;;6210304;23;20008;-86
2022/08/10 06:26:23;;;;;;;11.15;5.20;;;;;;;;;;6210379;23;20012;-86
2022/08/10 06:28:55;;;;;;;6.95;4.22;;;;;;;;;;6209358;23;20047;-85
2022/08/10 06:31:21;;;;;;;10.20;4.60;;;;;;;;;;6210396;23;20369;-86
2022/08/10 06:33:48;;;;;;;8.30;4.55;;;;;;;;;;6210381;23;20044;-86
2022/08/10 06:36:15;;;;;;;8.73;5.10;;;;;;;;;;6237072;23;20469;-86
2022/08/10 06:38:41;;;;;;;7.70;4.25;;;;;;;;;;6210118;23;20435;-85
2022/08/10 06:41:12;;;;;;;6.95;4.20;;;;;;;;;;6208661;23;20094;-86
2022/08/10 06:43:39;;;;;;;10.45;4.45;;;;;;;;;;6210973;23;20332;-86
2022/08/10 06:46:15;;;;;;;6.07;4.10;;;;;;;;;;6209626;23;20012;-85
2022/08/10 06:48:44;;;;;;;7.45;3.97;;;;;;;;;;6210622;23;20004;-86
2022/08/10 06:51:13;;;;;;;10.52;3.83;;;;;;;;;;6209121;23;20048;-86
2022/08/10 06:53:43;;;;;;;7.40;3.78;;;;;;;;;;6210386;23;20008;-86
2022/08/10 06:56:18;;;;;;;8.27;3.85;;;;;;;;;;6208199;23;20533;-87
2022/08/10 06:58:54;;;;;;;9.25;4.35;;;;;;;;;;6209564;23;20450;-86
2022/08/10 07:01:22;;;;;;;4.97;2.90;;;;;;;;;;6235488;23;20008;-85
2022/08/10 07:04:00;;;;;;;5.82;3.30;;;;;;;;;;6210065;23;20348;-85
2022/08/10 07:06:26;;;;;;;5.68;3.08;;;;;;;;;;6209383;23;20028;-86
2022/08/10 07:08:53;;;;;;;7.63;3.95;;;;;;;;;;6210736;23;20484;-85
2022/08/10 07:11:20;;;;;;;6.70;3.20;;;;;;;;;;6208746;23;20008;-85
2022/08/10 07:13:47;;;;;;;5.38;3.10;;;;;;;;;;6210148;23;20008;-86
2022/08/10 07:16:14;;;;;;;10.02;2.90;;;;;;;;;;6208123;23;20039;-85
2022/08/10 07:18:41;;;;;;;6.60;3.55;;;;;;;;;;6210459;23;20026;-86
2022/08/10 07:21:07;;;;;;;9.00;3.50;;;;;;;;;;6208217;22;20008;-85
2022/08/10 07:23:34;;;;;;;4.30;3.20;;;;;;;;;;6209216;23;20102;-86
2022/08/10 07:26:01;;;;;;;6.70;2.42;;;;;;;;;;6209370;23;20058;-86
2022/08/10 07:28:31;;;;;;;8.05;2.30;;;;;;;;;;6209973;23;20011;-85
2022/08/10 07:30:59;;;;;;;10.07;2.78;;;;;;;;;;6209219;23;20000;-85
2022/08/10 07:33:25;;;;;;;3.78;2.58;;;;;;;;;;6208746;23;20463;-86
2022/08/10 07:35:52;;;;;;;6.38;2.70;;;;;;;;;;6210525;23;20012;-86
2022/08/10 07:38:20;;;;;;;6.38;2.72;;;;;;;;;;6209214;23;20356;-86
2022/08/10 07:40:48;;;;;;;5.28;2.20;;;;;;;;;;6208205;23;20011;-85
2022/08/10 07:43:15;;;;;;;4.18;2.58;;;;;;;;;;6209182;23;20058;-85
2022/08/10 07:45:41;;;;;;;5.80;2.28;;;;;;;;;;6209805;23;20062;-85
2022/08/10 07:48:14;;;;;;;5.90;2.35;;;;;;;;;;6207936;23;20062;-86
2022/08/10 07:50:40;;;;;;;3.50;2.25;;;;;;;;;;6210113;23;20096;-85
2022/08/10 07:53:12;;;;;;;3.63;2.20;;;;;;;;;;6208488;23;20000;-85
2022/08/10 07:55:43;;;;;;;7.90;2.60;;;;;;;;;;6209460;23;20004;-86
2022/08/10 07:58:10;;;;;;;7.05;2.58;;;;;;;;;;6233979;23;20339;-85
2022/08/10 08:00:36;;;;;;;4.30;2.70;;;;;;;;;;6210176;23;20414;-86
2022/08/10 08:03:05;;;;;;;4.10;2.25;;;;;;;;;;6208616;23;20012;-86
2022/08/10 08:05:32;;;;;;;7.22;2.30;;;;;;;;;;6209709;23;20474;-86
2022/08/10 08:08:00;;;;;;;4.85;2.30;;;;;;;;;;6208812;23;20497;-85
2022/08/10 08:10:27;;;;;;;5.28;2.40;;;;;;;;;;6209887;23;20035;-86
2022/08/10 08:12:56;;;;;;;7.18;2.00;;;;;;;;;;6235575;23;20440;-86
2022/08/10 08:15:23;;;;;;;3.58;2.20;;;;;;;;;;6237310;23;20015;-86
2022/08/10 08:17:50;;;;;;;6.28;2.50;;;;;;;;;;6207966;23;20369;-86
2022/08/10 08:20:17;;;;;;;4.82;2.15;;;;;;;;;;6208214;23;20424;-86
2022/08/10 08:22:44;;;;;;;5.78;2.30;;;;;;;;;;6209733;22;20364;-86
2022/08/10 08:25:11;;;;;;;10.38;2.95;;;;;;;;;;6209475;23;20095;-86
2022/08/10 08:27:39;;;;;;;6.28;2.78;;;;;;;;;;6209051;23;20061;-86
2022/08/10 08:30:07;;;;;;;4.53;2.55;;;;;;;;;;6209254;23;20454;-86
2022/08/10 08:32:35;;;;;;;4.53;2.58;;;;;;;;;;6208797;23;20008;-86
2022/08/10 08:35:06;;;;;;;4.85;2.35;;;;;;;;;;6208384;23;20012;-86
2022/08/10 08:37:33;;;;;;;5.47;2.65;;;;;;;;;;6237001;23;20653;-85
2022/08/10 08:40:00;;;;;;;3.88;2.58;;;;;;;;;;6208169;23;20063;-87
2022/08/10 08:42:38;;;;;;;5.05;2.95;;;;;;;;;;6209555;23;20054;-86
2022/08/10 08:45:14;;;;;;;5.55;2.20;;;;;;;;;;6209151;23;20098;-87
2022/08/10 08:47:40;;;;;;;;;;;;;;;;;;6235177;23;20031;-86
2022/08/10 08:50:06;;;;;;;;;;;;;;;;;;6209559;23;20312;-85
2022/08/10 08:52:33;;;;;;;5.65;1.92;;;;;;;;;;6236393;23;19900;-86
2022/08/10 08:55:21;;;;;;;5.43;2.17;;;;;;;;;;6209029;23;20015;-86
2022/08/10 08:57:56;;;;;;;6.88;3.17;;;;;;;;;;6207708;23;20452;-86
2022/08/10 09:00:36;;;;;;;5.60;2.58;;;;;;;;;;6209599;23;20326;-86
2022/08/10 09:03:20;;;;;;;4.57;2.17;;;;;;;;;;6234999;23;20062;-86
2022/08/10 09:05:52;;;;;;;6.70;3.40;;;;;;;;;;6208504;23;20486;-86
2022/08/10 09:08:26;;;;;;;5.40;2.35;;;;;;;;;;6208973;23;20004;-85
2022/08/10 09:10:58;;;;;;;8.30;2.25;;;;;;;;;;6210182;23;20030;-85
2022/08/10 09:13:28;;;;;;;3.53;2.22;;;;;;;;;;6208983;23;20008;-86
2022/08/10 09:16:08;;;;;;;8.27;2.10;;;;;;;;;;6208138;23;20053;-87
2022/08/10 09:18:54;;;;;;;7.22;3.10;;;;;;;;;;6209232;23;20004;-86
2022/08/10 09:21:29;;;;;;;6.82;2.50;;;;;;;;;;6158510;22;20504;-86
2022/08/10 09:23:55;;;;;;;5.93;2.40;;;;;;;;;;6209841;23;20059;-85
2022/08/10 09:26:22;;;;;;;4.47;2.33;;;;;;;;;;6208267;23;20004;-86
2022/08/10 09:28:51;;;;;;;6.22;2.50;;;;;;;;;;6208336;23;20371;-86
2022/08/10 09:31:27;;;;;;;6.47;2.15;;;;;;;;;;6235625;23;20000;-85
2022/08/10 09:33:53;;;;;;;3.20;1.75;;;;;;;;;;6209599;23;20062;-87
2022/08/10 09:36:26;;;;;;;6.20;2.55;;;;;;;;;;6234899;23;20336;-85
2022/08/10 09:39:05;;;;;;;7.13;2.47;;;;;;;;;;6209432;23;20066;-86
2022/08/10 09:41:36;;;;;;;5.18;2.00;;;;;;;;;;6235996;23;20018;-87
2022/08/10 09:44:05;;;;;;;2.85;1.90;;;;;;;;;;6210512;23;20023;-87
2022/08/10 09:46:43;;;;;;;5.22;2.10;;;;;;;;;;6208685;23;20452;-87
2022/08/10 09:49:19;;;;;;;4.50;1.95;;;;;;;;;;6210973;23;20533;-87
2022/08/10 09:51:56;;;;;;;6.38;2.53;;;;;;;;;;6211120;23;20440;-87
2022/08/10 09:54:37;;;;;;;3.88;2.25;;;;;;;;;;6211369;23;20015;-87
2022/08/10 09:57:03;;;;;;;6.65;2.75;;;;;;;;;;6211290;23;20019;-87
2022/08/10 09:59:39;;;;;;;4.78;2.08;;;;;;;;;;6209390;23;20019;-87
2022/08/10 10:02:04;;;;;;;;;;;;;;;;;;6212553;23;20008;-87
2022/08/10 10:04:37;;;;;;;9.15;2.22;;;;;;;;;;6210819;23;19903;-87
2022/08/10 10:07:05;;;;;;;3.40;1.92;;;;;;;;;;6211651;23;20065;-86
2022/08/10 10:09:31;;;;;;;5.20;1.85;;;;;;;;;;6210252;23;20440;-87
2022/08/10 10:12:16;;;;;;;2.22;1.70;;;;;;;;;;6237931;23;20443;-87
2022/08/10 10:17:56;;;;;;;2.28;1.85;;;;;;;;;;6238367;23;20479;-87
2022/08/10 10:20:41;;;;;;;4.90;1.85;;;;;;;;;;6142602;23;20015;-87
2022/08/10 10:23:36;;;;;;;6.75;2.42;;;;;;;;;;6237189;22;20020;-87
2022/08/10 10:26:08;;;;;;;4.85;1.67;;;;;;;;;;6079113;23;20404;-86
2022/08/10 10:28:45;;;;;;;3.60;2.22;;;;;;;;;;6210148;23;20440;-87
2022/08/10 10:31:26;;;;;;;3.35;1.50;;;;;;;;;;6211379;23;20078;-87
2022/08/10 10:34:11;;;;;;;4.00;2.15;;;;;;;;;;6211297;23;20000;-87
2022/08/10 10:36:39;;;;;;;3.70;1.80;;;;;;;;;;6210284;23;20407;-87
2022/08/10 10:39:06;;;;;;;3.22;1.55;;;;;;;;;;6210659;23;20098;-87
2022/08/10 10:41:53;;;;;;;3.50;1.60;;;;;;;;;;6209386;23;20349;-87
2022/08/10 10:44:38;;;;;;;8.02;2.00;;;;;;;;;;6210359;23;20111;-87
2022/08/10 10:47:23;;;;;;;5.97;2.50;;;;;;;;;;6210949;23;20042;-87
2022/08/10 10:50:01;;;;;;;1.92;1.77;;;;;;;;;;6209584;23;20437;-86
2022/08/10 10:52:40;;;;;;;3.63;1.48;;;;;;;;;;6208418;23;20035;-87
2022/08/10 10:55:18;;;;;;;1.85;1.50;;;;;;;;;;6237972;23;20073;-87
2022/08/10 10:57:58;;;;;;;6.38;1.80;;;;;;;;;;6208845;23;20018;-87
2022/08/10 11:00:27;;;;;;;2.38;1.73;;;;;;;;;;6210925;23;20470;-87
2022/08/10 11:03:15;;;;;;;5.15;2.08;;;;;;;;;;6210784;23;20008;-87
2022/08/10 11:06:00;;;;;;;5.25;1.73;;;;;;;;;;6211380;23;20448;-87
2022/08/10 11:08:30;;;;;;;4.30;1.77;;;;;;;;;;6239159;23;20006;-87
2022/08/10 11:11:00;;;;;;;4.47;1.75;;;;;;;;;;6210592;23;20384;-87
2022/08/10 11:13:33;;;;;;;4.13;1.85;;;;;;;;;;6211880;23;20000;-87
2022/08/10 11:15:59;;;;;;;5.38;1.88;;;;;;;;;;6210593;23;20501;-87
2022/08/10 11:18:32;;;;;;;1.80;1.70;;;;;;;;;;6212705;23;20499;-87
2022/08/10 11:21:34;;;;;;;1.65;1.48;;;;;;;;;;6209041;23;20008;-87
2022/08/10 11:24:04;;;;;;;1.63;1.52;;;;;;;;;;6061053;23;20032;-87
2022/08/10 11:26:34;;;;;;;4.15;1.80;;;;;;;;;;6153811;23;20012;-86
2022/08/10 11:29:00;;;;;;;2.88;1.95;;;;;;;;;;6176684;23;20129;-86
2022/08/10 11:31:32;;;;;;;2.47;1.63;;;;;;;;;;6174813;23;20055;-88
2022/08/10 11:34:01;;;;;;;1.17;1.05;;;;;;;;;;6176556;23;20442;-88
2022/08/10 11:36:39;;;;;;;1.50;1.40;;;;;;;;;;6151020;23;20046;-87
2022/08/10 11:39:10;;;;;;;4.20;1.90;;;;;;;;;;6175165;23;20005;-87
2022/08/10 11:41:39;;;;;;;2.65;1.98;;;;;;;;;;6173978;23;20016;-87
2022/08/10 11:44:10;;;;;;;1.70;1.60;;;;;;;;;;6176448;23;20005;-87
2022/08/10 11:46:38;;;;;;;4.20;2.03;;;;;;;;;;6175389;23;20012;-87
2022/08/10 11:49:07;;;;;;;4.75;1.90;;;;;;;;;;6175917;23;20406;-87
2022/08/10 11:51:38;;;;;;;5.38;1.85;;;;;;;;;;6174655;23;20410;-87
2022/08/10 11:54:08;;;;;;;1.30;1.20;;;;;;;;;;6178088;23;20005;-87
2022/08/10 11:56:48;;;;;;;3.05;1.60;;;;;;;;;;6174527;23;20376;-87
2022/08/10 12:02:01;;;;;;;4.22;1.92;;;;;;;;;;6177272;23;20016;-87
2022/08/10 12:04:28;;;;;;;3.30;1.73;;;;;;;;;;6175284;23;20016;-87
2022/08/10 12:06:55;;;;;;;5.18;2.03;;;;;;;;;;6175133;23;20008;-87
2022/08/10 12:09:21;;;;;;;2.92;1.80;;;;;;;;;;6175349;23;20434;-87
2022/08/10 12:11:49;;;;;;;4.80;2.05;;;;;;;;;;6173038;23;20062;-87
2022/08/10 12:14:19;;;;;;;2.42;1.48;;;;;;;;;;6176436;23;20414;-87
2022/08/10 12:16:47;;;;;;;3.72;1.40;;;;;;;;;;6173720;23;20020;-87
2022/08/10 12:19:18;;;;;;;4.65;1.70;;;;;;;;;;6175946;23;20337;-87
2022/08/10 12:21:50;;;;;;;5.15;1.85;;;;;;;;;;6181046;22;20591;-87
2022/08/10 12:24:23;;;;;;;2.55;1.70;;;;;;;;;;6210931;23;20516;-87
2022/08/10 12:27:09;;;;;;;4.43;1.80;;;;;;;;;;6208503;23;20468;-87
2022/08/10 12:29:35;;;;;;;6.07;1.40;;;;;;;;;;6236681;23;20458;-87
2022/08/10 12:32:12;;;;;;;4.60;1.60;;;;;;;;;;6209260;23;20031;-87
2022/08/10 12:34:41;;;;;;;4.13;1.63;;;;;;;;;;6237317;23;20034;-87
2022/08/10 12:37:26;;;;;;;3.75;1.58;;;;;;;;;;6208698;23;20008;-87
2022/08/10 12:40:00;;;;;;;2.13;1.90;;;;;;;;;;6209549;23;20015;-87
2022/08/10 12:42:30;;;;;;;3.63;1.70;;;;;;;;;;6209213;23;20533;-87
2022/08/10 12:45:09;;;;;;;6.05;1.73;;;;;;;;;;6210273;23;20396;-87
2022/08/10 12:47:35;;;;;;;5.32;1.75;;;;;;;;;;6210534;23;20004;-87
2022/08/10 12:50:01;;;;;;;2.47;1.23;;;;;;;;;;6211077;23;20010;-87
2022/08/10 12:52:30;;;;;;;3.20;1.70;;;;;;;;;;6236998;23;20003;-87
2022/08/10 12:54:58;;;;;;;3.22;1.42;;;;;;;;;;6209930;23;20365;-87
2022/08/10 12:57:25;;;;;;;3.13;1.77;;;;;;;;;;6209410;23;20461;-87
2022/08/10 12:59:52;;;;;;;2.58;1.52;;;;;;;;;;6235528;23;20007;-87
2022/08/10 13:02:31;;;;;;;2.85;1.50;;;;;;;;;;6210960;23;20008;-87
2022/08/10 13:04:58;;;;;;;5.15;1.73;;;;;;;;;;6210282;23;20009;-87
2022/08/10 13:07:36;;;;;;;3.47;2.03;;;;;;;;;;6211030;23;20035;-87
2022/08/10 13:10:06;;;;;;;8.93;1.30;;;;;;;;;;6209223;23;20004;-87
2022/08/10 13:12:34;;;;;;;7.80;1.63;;;;;;;;;;6210216;23;20095;-87
2022/08/10 13:15:06;;;;;;;5.97;1.80;;;;;;;;;;6209742;23;20008;-87
2022/08/10 13:17:33;;;;;;;6.13;1.73;;;;;;;;;;6237457;23;20459;-87
2022/08/10 13:20:02;;;;;;;2.55;1.60;;;;;;;;;;6210813;23;20099;-87
2022/08/10 13:22:29;;;;;;;2.08;1.42;;;;;;;;;;6211709;22;20103;-87
2022/08/10 13:24:58;;;;;;;2.58;1.40;;;;;;;;;;6211507;23;20095;-87
2022/08/10 13:27:27;;;;;;;6.85;2.20;;;;;;;;;;6211524;23;20004;-87
2022/08/10 13:30:05;;;;;;;9.27;1.42;;;;;;;;;;6210980;23;20004;-87
2022/08/10 13:32:47;;;;;;;3.90;1.80;;;;;;;;;;6212022;23;20031;-87
2022/08/10 13:35:16;;;;;;;1.73;1.63;;;;;;;;;;6212228;23;20069;-87
2022/08/10 13:37:46;;;;;;;4.00;1.58;;;;;;;;;;6211882;23;20011;-87
2022/08/10 13:40:14;;;;;;;2.63;1.25;;;;;;;;;;6210096;23;20307;-87
2022/08/10 13:42:41;;;;;;;2.50;1.58;;;;;;;;;;6210694;23;20026;-87
2022/08/10 13:45:09;;;;;;;4.30;1.30;;;;;;;;;;6212360;23;20004;-87
2022/08/10 13:47:35;;;;;;;3.88;1.73;;;;;;;;;;6238511;23;20027;-87
2022/08/10 13:50:07;;;;;;;2.92;1.40;;;;;;;;;;6211720;23;20079;-88
2022/08/10 13:52:34;;;;;;;9.57;2.05;;;;;;;;;;6211693;23;20087;-87
2022/08/10 13:55:00;;;;;;;2.40;1.55;;;;;;;;;;6211580;23;20015;-87
2022/08/10 13:57:28;;;;;;;6.97;1.58;;;;;;;;;;6209107;23;20070;-87
2022/08/10 13:59:55;;;;;;;2.15;1.40;;;;;;;;;;6238672;23;20004;-87
2022/08/10 14:02:26;;;;;;;5.80;1.70;;;;;;;;;;6239320;23;20073;-87
2022/08/10 14:04:53;;;;;;;4.10;1.58;;;;;;;;;;6211843;23;20091;-87
2022/08/10 14:07:20;;;;;;;3.08;1.77;;;;;;;;;;6212063;23;20000;-87
2022/08/10 14:09:47;;;;;;;3.83;1.85;;;;;;;;;;6210619;23;20040;-87
2022/08/10 14:12:13;;;;;;;2.20;1.50;;;;;;;;;;6208593;23;20482;-87
2022/08/10 14:14:41;;;;;;;5.03;1.63;;;;;;;;;;6212385;23;20015;-87
2022/08/10 14:17:08;;;;;;;4.57;1.45;;;;;;;;;;6211827;23;20010;-87
2022/08/10 14:19:43;;;;;;;6.18;1.88;;;;;;;;;;6212729;23;20549;-87
2022/08/10 14:22:09;;;;;;;1.60;1.50;;;;;;;;;;6212924;22;20100;-87
2022/08/10 14:24:35;;;;;;;4.32;1.67;;;;;;;;;;6239905;23;20032;-87
2022/08/10 14:27:04;;;;;;;4.85;1.60;;;;;;;;;;6210953;23;20035;-87
2022/08/10 14:29:32;;;;;;;5.68;2.75;;;;;;;;;;6239272;23;20030;-87
2022/08/10 14:31:59;;;;;;;3.75;1.55;;;;;;;;;;6211641;23;20090;-87
2022/08/10 14:34:33;;;;;;;5.97;1.55;;;;;;;;;;6238611;23;20464;-87
2022/08/10 14:37:06;;;;;;;5.45;1.80;;;;;;;;;;6211720;23;20008;-87
2022/08/10 14:39:54;;;;;;;7.18;1.60;;;;;;;;;;6210782;23;20004;-86
2022/08/10 14:42:50;;;;;;;6.32;1.30;;;;;;;;;;6211048;23;20352;-87
2022/08/10 14:45:15;;;;;;;;;;;;;;;;;;6181104;23;20696;-87
2022/08/10 14:47:42;;;;;;;5.18;1.90;;;;;;;;;;6210295;23;19907;-87
2022/08/10 14:50:08;;;;;;;3.30;1.40;;;;;;;;;;6212578;23;20004;-86
2022/08/10 14:52:38;;;;;;;2.88;1.42;;;;;;;;;;6210993;23;20010;-86
2022/08/10 14:55:04;;;;;;;4.95;1.65;;;;;;;;;;6211045;23;20008;-87
2022/08/10 14:57:32;;;;;;;5.68;1.92;;;;;;;;;;6209297;23;20396;-87
2022/08/10 14:59:58;;;;;;;2.92;1.67;;;;;;;;;;6209905;23;20099;-87
2022/08/10 15:02:24;;;;;;;2.83;1.85;;;;;;;;;;6208740;23;20051;-87
2022/08/10 15:04:51;;;;;;;4.32;2.58;;;;;;;;;;6208472;23;20200;-88